createdAt,value
2019-03-28T00:00:35.760Z,26.70
2019-03-28T00:03:05.109Z,26.50
2019-03-28T00:05:34.449Z,27.90
2019-03-28T00:08:04.048Z,24.90
2019-03-28T00:10:33.410Z,26.40
2019-03-28T00:13:02.735Z,27.40
2019-03-28T00:15:32.754Z,27.30
2019-03-28T00:18:02.395Z,26.50
2019-03-28T00:20:31.954Z,27.13
2019-03-28T00:23:07.281Z,28.07
2019-03-28T00:25:36.737Z,27.97
2019-03-28T00:28:06.119Z,29.07
2019-03-28T00:30:35.560Z,28.50
2019-03-28T00:33:04.994Z,28.03
2019-03-28T00:35:34.334Z,27.17
2019-03-28T00:38:03.716Z,27.57
2019-03-28T00:40:33.142Z,28.40
2019-03-28T00:43:02.583Z,26.30
2019-03-28T00:45:32.025Z,26.00
2019-03-28T00:48:01.459Z,27.67
2019-03-28T00:50:33.042Z,28.47
2019-03-28T00:53:01.955Z,27.10
2019-03-28T00:55:31.499Z,27.40
2019-03-28T00:58:02.622Z,27.67
2019-03-28T01:00:32.127Z,28.43
2019-03-28T01:03:01.450Z,27.70
2019-03-28T01:05:30.796Z,26.40
2019-03-28T01:08:00.391Z,25.53
2019-03-28T01:10:29.809Z,25.30
2019-03-28T01:12:59.220Z,27.10
2019-03-28T01:15:28.671Z,26.80
2019-03-28T01:17:58.042Z,26.20
2019-03-28T01:20:27.438Z,26.37
2019-03-28T01:22:56.886Z,27.07
2019-03-28T01:25:26.349Z,28.00
2019-03-28T01:27:55.701Z,29.50
2019-03-28T01:30:25.166Z,26.07
2019-03-28T01:32:54.522Z,26.50
2019-03-28T01:35:23.894Z,27.47
2019-03-28T01:37:54.763Z,27.87
2019-03-28T01:40:24.105Z,28.47
2019-03-28T01:42:53.433Z,27.53
2019-03-28T01:45:26.290Z,28.97
2019-03-28T01:47:55.710Z,28.30
2019-03-28T01:50:25.111Z,28.27
2019-03-28T01:52:54.543Z,28.13
2019-03-28T01:55:25.428Z,28.33
2019-03-28T01:57:57.580Z,28.70
2019-03-28T02:00:27.085Z,27.87
2019-03-28T02:02:56.503Z,27.80
2019-03-28T02:05:25.860Z,27.07
2019-03-28T02:07:58.077Z,26.97
2019-03-28T02:10:27.519Z,28.47
2019-03-28T02:12:57.143Z,29.10
2019-03-28T02:15:26.658Z,25.70
2019-03-28T02:17:55.990Z,26.90
2019-03-28T02:20:27.191Z,26.73
2019-03-28T02:22:56.515Z,26.33
2019-03-28T02:25:25.954Z,26.27
2019-03-28T02:27:55.381Z,27.80
2019-03-28T02:30:34.660Z,28.00
2019-03-28T02:33:04.003Z,28.90
2019-03-28T02:35:35.745Z,27.93
2019-03-28T02:38:05.127Z,29.30
2019-03-28T02:40:34.695Z,29.60
2019-03-28T02:43:04.175Z,29.40
2019-03-28T02:45:33.560Z,25.50
2019-03-28T02:48:03.593Z,27.17
2019-03-28T02:50:32.988Z,27.20
2019-03-28T02:53:02.331Z,27.90
2019-03-28T02:55:31.787Z,26.90
2019-03-28T02:58:01.156Z,28.40
2019-03-28T03:00:30.513Z,24.90
2019-03-28T03:02:59.867Z,26.20
2019-03-28T03:05:29.530Z,27.83
2019-03-28T03:08:00.046Z,25.87
2019-03-28T03:10:29.611Z,27.70
2019-03-28T03:13:01.781Z,28.43
2019-03-28T03:15:32.002Z,28.30
2019-03-28T03:18:01.447Z,28.33
2019-03-28T03:20:30.789Z,31.07
2019-03-28T03:23:00.314Z,29.50
2019-03-28T03:25:29.751Z,28.87
2019-03-28T03:27:59.500Z,29.53
2019-03-28T03:30:31.402Z,31.20
2019-03-28T03:33:00.013Z,31.90
2019-03-28T03:35:29.328Z,32.30
2019-03-28T03:37:58.750Z,33.97
2019-03-28T03:40:28.151Z,29.73
2019-03-28T03:42:57.514Z,32.10
2019-03-28T03:45:26.918Z,33.10
2019-03-28T03:47:56.298Z,32.03
2019-03-28T03:50:27.569Z,34.03
2019-03-28T03:52:57.031Z,30.57
2019-03-28T03:55:26.447Z,33.10
2019-03-28T03:57:55.886Z,32.30
2019-03-28T04:00:32.582Z,29.90
2019-03-28T04:03:02.941Z,31.83
2019-03-28T04:05:32.704Z,28.77
2019-03-28T04:08:02.077Z,32.00
2019-03-28T04:10:31.546Z,32.00
2019-03-28T04:13:01.054Z,29.97
2019-03-28T04:15:30.587Z,32.23
2019-03-28T04:18:00.009Z,33.23
2019-03-28T04:20:29.377Z,31.13
2019-03-28T04:22:58.876Z,33.70
2019-03-28T04:25:28.321Z,31.17
2019-03-28T04:27:57.779Z,30.10
2019-03-28T04:30:27.104Z,32.40
2019-03-28T04:32:56.449Z,30.80
2019-03-28T04:35:26.015Z,26.50
2019-03-28T04:37:58.605Z,30.67
2019-03-28T04:40:28.075Z,25.93
2019-03-28T04:42:57.743Z,25.80
2019-03-28T04:45:27.166Z,27.60
2019-03-28T04:47:56.698Z,26.97
2019-03-28T04:50:26.085Z,31.10
2019-03-28T04:52:56.731Z,28.55
2019-03-28T04:55:26.054Z,29.07
2019-03-28T04:57:55.752Z,30.60
2019-03-28T05:00:25.090Z,29.43
2019-03-28T05:02:54.429Z,30.33
2019-03-28T05:05:23.867Z,30.23
2019-03-28T05:07:53.301Z,29.67
2019-03-28T05:10:22.736Z,28.32
2019-03-28T05:12:52.139Z,34.85
2019-03-28T05:15:21.553Z,30.60
2019-03-28T05:17:50.989Z,31.60
2019-03-28T05:20:20.375Z,29.90
2019-03-28T05:22:49.826Z,32.50
2019-03-28T05:25:19.173Z,32.70
2019-03-28T05:27:48.681Z,34.07
2019-03-28T05:30:18.020Z,35.73
2019-03-28T05:32:47.392Z,36.30
2019-03-28T05:35:16.720Z,32.33
2019-03-28T05:37:46.093Z,33.57
2019-03-28T05:40:15.487Z,32.57
2019-03-28T05:42:44.918Z,30.40
2019-03-28T05:45:14.656Z,29.40
2019-03-28T05:47:44.354Z,31.33
2019-03-28T05:50:13.723Z,29.37
2019-03-28T05:52:44.998Z,31.77
2019-03-28T05:55:14.462Z,32.17
2019-03-28T05:57:43.842Z,31.57
2019-03-28T06:00:13.430Z,32.37
2019-03-28T06:02:42.805Z,35.67
2019-03-28T06:05:12.211Z,36.03
2019-03-28T06:07:41.596Z,37.17
2019-03-28T06:10:11.027Z,39.40
2019-03-28T06:12:40.475Z,35.73
2019-03-28T06:15:09.929Z,35.50
2019-03-28T06:17:39.276Z,36.80
2019-03-28T06:20:09.140Z,33.53
2019-03-28T06:22:39.550Z,33.53
2019-03-28T06:25:09.696Z,29.67
2019-03-28T06:27:39.017Z,35.53
2019-03-28T06:30:08.790Z,32.40
2019-03-28T06:32:43.228Z,31.53
2019-03-28T06:35:09.454Z,27.70
2019-03-28T06:37:38.895Z,25.10
2019-03-28T06:40:08.345Z,26.33
2019-03-28T06:42:37.769Z,25.90
2019-03-28T06:45:07.836Z,24.10
2019-03-28T06:47:37.244Z,24.27
2019-03-28T06:50:11.658Z,23.90
2019-03-28T06:52:40.544Z,25.63
2019-03-28T06:55:10.268Z,26.70
2019-03-28T06:57:39.629Z,26.00
2019-03-28T07:00:09.342Z,25.83
2019-03-28T07:02:38.691Z,27.30
2019-03-28T07:05:08.157Z,27.20
2019-03-28T07:07:37.557Z,25.30
2019-03-28T07:10:07.009Z,27.70
2019-03-28T07:12:38.665Z,26.47
2019-03-28T07:15:10.525Z,26.20
2019-03-28T07:17:39.962Z,27.40
2019-03-28T07:20:09.488Z,27.30
2019-03-28T07:22:40.086Z,26.97
2019-03-28T07:25:09.685Z,27.70
2019-03-28T07:27:39.104Z,25.77
2019-03-28T07:30:08.770Z,28.03
2019-03-28T07:32:43.437Z,27.03
2019-03-28T07:35:12.077Z,28.70
2019-03-28T07:37:41.486Z,30.37
2019-03-28T07:40:11.455Z,28.80
2019-03-28T07:42:40.816Z,28.63
2019-03-28T07:45:10.398Z,29.20
2019-03-28T07:47:39.746Z,30.80
2019-03-28T07:50:09.440Z,29.50
2019-03-28T07:52:38.886Z,28.73
2019-03-28T07:55:08.328Z,27.33
2019-03-28T07:57:37.737Z,29.00
2019-03-28T08:00:07.999Z,30.07
2019-03-28T08:02:37.430Z,30.63
2019-03-28T08:05:08.524Z,32.43
2019-03-28T08:07:45.101Z,31.50
2019-03-28T08:10:08.972Z,31.00
2019-03-28T08:12:40.722Z,29.23
2019-03-28T08:15:32.233Z,30.90
2019-03-28T08:18:01.807Z,30.20
2019-03-28T08:20:31.341Z,29.80
2019-03-28T08:23:00.746Z,31.87
2019-03-28T08:25:30.114Z,30.63
2019-03-28T08:27:59.525Z,31.07
2019-03-28T08:30:39.003Z,30.40
2019-03-28T08:33:08.615Z,28.47
2019-03-28T08:35:38.251Z,31.27
2019-03-28T08:38:09.964Z,28.07
2019-03-28T08:40:47.454Z,26.87
2019-03-28T08:43:16.781Z,24.63
2019-03-28T08:45:46.511Z,19.97
2019-03-28T08:48:36.452Z,19.60
2019-03-28T08:51:08.033Z,20.03
2019-03-28T08:56:31.885Z,19.53
2019-03-28T08:59:04.858Z,19.20
2019-03-28T09:01:37.387Z,20.27
2019-03-28T09:04:06.932Z,19.17
2019-03-28T09:06:40.026Z,17.80
2019-03-28T09:09:09.911Z,17.67
2019-03-28T09:11:39.260Z,16.10
2019-03-28T09:14:13.472Z,16.13
2019-03-28T09:17:05.399Z,16.53
2019-03-28T09:20:04.570Z,16.40
2019-03-28T09:22:34.416Z,17.10
2019-03-28T09:25:13.154Z,17.07
2019-03-28T09:27:43.827Z,17.30
2019-03-28T09:30:13.741Z,16.17
2019-03-28T09:32:44.891Z,16.47
2019-03-28T09:35:18.779Z,17.33
2019-03-28T09:37:48.380Z,14.67
2019-03-28T09:40:17.971Z,16.40
2019-03-28T09:42:47.325Z,15.83
2019-03-28T09:45:19.893Z,16.33
2019-03-28T09:47:49.220Z,15.70
2019-03-28T09:50:18.638Z,14.90
2019-03-28T09:52:47.965Z,14.77
2019-03-28T09:55:19.176Z,13.00
2019-03-28T09:57:48.941Z,10.97
2019-03-28T10:00:18.431Z,12.63
2019-03-28T10:02:50.159Z,12.03
2019-03-28T10:05:19.526Z,11.77
2019-03-28T10:07:48.841Z,12.27
2019-03-28T10:10:18.349Z,12.67
2019-03-28T10:12:48.022Z,12.80
2019-03-28T10:15:18.091Z,12.50
2019-03-28T10:17:47.562Z,12.77
2019-03-28T10:20:16.969Z,12.03
2019-03-28T10:22:46.434Z,11.60
2019-03-28T10:25:15.830Z,11.97
2019-03-28T10:27:45.335Z,13.53
2019-03-28T10:30:14.833Z,12.33
2019-03-28T10:32:44.611Z,12.20
2019-03-28T10:35:26.503Z,12.40
2019-03-28T10:37:58.153Z,11.53
2019-03-28T10:40:27.741Z,11.00
2019-03-28T10:42:57.216Z,10.30
2019-03-28T10:45:26.941Z,10.30
2019-03-28T10:47:56.533Z,10.40
2019-03-28T10:50:39.879Z,8.80
2019-03-28T10:52:57.028Z,10.87
2019-03-28T10:55:26.439Z,9.10
2019-03-28T10:57:58.533Z,10.10
2019-03-28T11:00:27.968Z,8.60
2019-03-28T11:02:57.469Z,9.33
2019-03-28T11:05:27.037Z,9.90
2019-03-28T11:07:56.393Z,10.90
2019-03-28T11:10:26.650Z,10.33
2019-03-28T11:12:58.017Z,9.90
2019-03-28T11:15:27.346Z,11.10
2019-03-28T11:17:56.675Z,11.03
2019-03-28T11:20:25.979Z,12.13
2019-03-28T11:22:55.437Z,11.10
2019-03-28T11:25:24.869Z,12.30
2019-03-28T11:27:54.245Z,12.80
2019-03-28T11:30:23.557Z,13.27
2019-03-28T11:32:52.936Z,15.73
2019-03-28T11:35:22.357Z,16.10
2019-03-28T11:37:51.769Z,15.80
2019-03-28T11:40:24.375Z,16.37
2019-03-28T11:42:53.271Z,16.30
2019-03-28T11:45:26.762Z,19.63
2019-03-28T11:47:56.214Z,16.63
2019-03-28T11:50:25.553Z,16.60
2019-03-28T11:52:56.088Z,14.97
2019-03-28T11:55:25.558Z,15.80
2019-03-28T11:57:56.601Z,14.50
2019-03-28T12:00:26.274Z,14.93
2019-03-28T12:02:55.966Z,14.30
2019-03-28T12:05:25.488Z,14.07
2019-03-28T12:07:55.102Z,12.53
2019-03-28T12:10:25.711Z,13.77
2019-03-28T12:12:56.933Z,14.90
2019-03-28T12:15:26.267Z,14.50
2019-03-28T12:17:56.655Z,14.73
2019-03-28T12:20:26.104Z,12.70
2019-03-28T12:22:56.933Z,13.10
2019-03-28T12:25:26.366Z,12.23
2019-03-28T12:27:55.884Z,13.60
2019-03-28T12:30:25.289Z,13.33
2019-03-28T12:32:55.761Z,13.00
2019-03-28T12:35:25.269Z,12.10
2019-03-28T12:37:54.670Z,12.33
2019-03-28T12:40:24.133Z,12.93
2019-03-28T12:42:53.524Z,11.97
2019-03-28T12:45:22.904Z,12.00
2019-03-28T12:47:52.282Z,11.83
2019-03-28T12:50:21.743Z,12.60
2019-03-28T12:52:51.211Z,12.83
2019-03-28T12:55:20.699Z,11.47
2019-03-28T12:57:50.050Z,11.30
2019-03-28T13:00:24.390Z,10.93
2019-03-28T13:02:53.872Z,11.67
2019-03-28T13:05:23.359Z,12.90
2019-03-28T13:07:52.838Z,12.10
2019-03-28T13:10:22.308Z,11.00
2019-03-28T13:12:52.047Z,8.47
2019-03-28T13:15:21.784Z,10.10
2019-03-28T13:17:51.191Z,9.30
2019-03-28T13:20:22.387Z,8.97
2019-03-28T13:22:53.136Z,8.90
2019-03-28T13:25:22.551Z,8.63
2019-03-28T13:27:51.933Z,8.20
2019-03-28T13:30:24.384Z,8.20
2019-03-28T13:32:53.810Z,8.00
2019-03-28T13:35:23.279Z,8.87
2019-03-28T13:37:52.870Z,8.43
2019-03-28T13:40:23.979Z,7.17
2019-03-28T13:42:53.685Z,7.90
2019-03-28T13:45:23.344Z,7.40
2019-03-28T13:47:54.436Z,7.17
2019-03-28T13:50:24.143Z,7.20
2019-03-28T13:52:53.674Z,6.57
2019-03-28T13:55:23.267Z,6.60
2019-03-28T13:57:52.741Z,6.70
2019-03-28T14:00:31.022Z,6.90
2019-03-28T14:03:00.543Z,6.07
2019-03-28T14:05:29.982Z,6.17
2019-03-28T14:07:59.628Z,5.90
2019-03-28T14:10:29.168Z,5.70
2019-03-28T14:12:58.735Z,5.87
2019-03-28T14:15:28.394Z,5.23
2019-03-28T14:17:57.825Z,5.33
2019-03-28T14:20:27.351Z,6.00
2019-03-28T14:22:56.810Z,4.83
2019-03-28T14:25:26.124Z,5.30
2019-03-28T14:27:55.713Z,6.90
2019-03-28T14:30:25.072Z,7.13
2019-03-28T14:32:55.463Z,7.57
2019-03-28T14:35:25.959Z,7.67
2019-03-28T14:37:55.573Z,7.40
2019-03-28T14:40:25.036Z,6.77
2019-03-28T14:42:55.258Z,6.17
2019-03-28T14:45:24.868Z,6.40
2019-03-28T14:47:54.288Z,10.10
2019-03-28T14:50:34.612Z,11.90
2019-03-28T14:53:04.201Z,14.10
2019-03-28T14:55:34.096Z,11.80
2019-03-28T14:58:04.334Z,11.17
2019-03-28T15:00:46.676Z,12.17
2019-03-28T15:03:25.578Z,9.90
2019-03-28T15:05:47.194Z,9.43
2019-03-28T15:08:16.663Z,8.07
2019-03-28T15:10:46.185Z,8.60
2019-03-28T15:13:15.760Z,8.40
2019-03-28T15:15:45.684Z,9.20
2019-03-28T15:18:15.242Z,8.17
2019-03-28T15:20:44.849Z,10.07
2019-03-28T15:23:14.297Z,8.70
2019-03-28T15:25:43.711Z,12.30
2019-03-28T15:28:13.223Z,11.77
2019-03-28T15:30:42.591Z,11.60
2019-03-28T15:33:12.015Z,10.90
2019-03-28T15:35:41.354Z,12.50
2019-03-28T15:38:10.865Z,11.57
2019-03-28T15:40:40.314Z,12.70
2019-03-28T15:43:09.751Z,13.50
2019-03-28T15:45:39.131Z,13.10
2019-03-28T15:48:09.250Z,12.73
2019-03-28T15:50:39.272Z,12.93
2019-03-28T15:53:08.587Z,12.53
2019-03-28T15:55:38.158Z,13.07
2019-03-28T15:58:07.845Z,10.93
2019-03-28T16:00:37.414Z,11.13
2019-03-28T16:03:06.952Z,11.70
2019-03-28T16:05:36.365Z,10.57
2019-03-28T16:08:05.809Z,9.17
2019-03-28T16:10:35.174Z,9.60
2019-03-28T16:13:04.881Z,10.33
2019-03-28T16:15:34.499Z,9.83
2019-03-28T16:18:04.366Z,9.30
2019-03-28T16:20:33.858Z,8.30
2019-03-28T16:23:03.860Z,8.80
2019-03-28T16:25:33.375Z,7.70
2019-03-28T16:28:02.896Z,8.93
2019-03-28T16:30:39.219Z,8.50
2019-03-28T16:33:09.015Z,9.07
2019-03-28T16:35:38.530Z,8.50
2019-03-28T16:38:07.932Z,8.40
2019-03-28T16:40:37.371Z,8.40
2019-03-28T16:43:07.541Z,8.13
2019-03-28T16:45:37.206Z,8.23
2019-03-28T16:48:06.809Z,8.17
2019-03-28T16:50:36.368Z,8.00
2019-03-28T16:53:05.798Z,8.50
2019-03-28T16:55:35.654Z,9.97
2019-03-28T16:58:05.013Z,9.27
2019-03-28T17:00:36.278Z,8.33
2019-03-28T17:03:06.001Z,8.50
2019-03-28T17:05:35.414Z,8.83
2019-03-28T17:08:06.407Z,9.07
2019-03-28T17:10:49.565Z,8.97
2019-03-28T17:13:19.020Z,7.40
2019-03-28T17:15:49.345Z,7.80
2019-03-28T17:18:19.458Z,7.83
2019-03-28T17:20:49.061Z,7.80
2019-03-28T17:23:19.226Z,8.90
2019-03-28T17:25:48.675Z,8.83
2019-03-28T17:28:18.179Z,8.57
2019-03-28T17:30:47.783Z,8.27
2019-03-28T17:33:18.085Z,7.97
2019-03-28T17:35:47.758Z,8.33
2019-03-28T17:38:17.513Z,8.50
2019-03-28T17:40:47.226Z,8.60
2019-03-28T17:43:16.664Z,9.10
2019-03-28T17:45:46.367Z,10.40
2019-03-28T17:48:15.998Z,9.50
2019-03-28T17:50:45.432Z,9.47
2019-03-28T17:53:15.019Z,8.87
2019-03-28T17:55:44.750Z,7.67
2019-03-28T17:58:14.175Z,8.97
2019-03-28T18:00:45.834Z,9.37
2019-03-28T18:03:15.463Z,10.30
2019-03-28T18:05:57.447Z,9.30
2019-03-28T18:08:16.188Z,8.93
2019-03-28T18:10:45.593Z,9.00
2019-03-28T18:13:15.057Z,9.00
2019-03-28T18:15:44.521Z,10.13
2019-03-28T18:18:14.227Z,10.67
2019-03-28T18:20:43.919Z,9.93
2019-03-28T18:23:13.523Z,8.73
2019-03-28T18:25:42.978Z,10.13
2019-03-28T18:28:12.577Z,10.80
2019-03-28T18:30:42.102Z,10.00
2019-03-28T18:33:11.683Z,10.40
2019-03-28T18:35:41.099Z,9.27
2019-03-28T18:38:11.147Z,9.70
2019-03-28T18:40:40.767Z,9.67
2019-03-28T18:43:10.249Z,10.33
2019-03-28T18:45:39.701Z,9.70
2019-03-28T18:48:09.564Z,10.00
2019-03-28T18:50:41.331Z,10.20
2019-03-28T18:53:11.100Z,9.60
2019-03-28T18:55:40.629Z,10.33
2019-03-28T18:58:10.146Z,9.00
2019-03-28T19:00:39.737Z,8.67
2019-03-28T19:03:09.334Z,7.80
2019-03-28T19:05:38.925Z,7.33
2019-03-28T19:08:08.518Z,7.97
2019-03-28T19:10:38.049Z,12.33
2019-03-28T19:13:07.637Z,13.57
2019-03-28T19:15:37.492Z,13.97
2019-03-28T19:18:07.062Z,13.00
2019-03-28T19:20:36.599Z,14.83
2019-03-28T19:23:07.351Z,12.87
2019-03-28T19:25:37.003Z,11.27
2019-03-28T19:28:07.802Z,10.70
2019-03-28T19:30:38.678Z,9.27
2019-03-28T19:33:08.382Z,11.03
2019-03-28T19:35:38.117Z,9.13
2019-03-28T19:38:09.495Z,10.10
2019-03-28T19:40:39.093Z,8.63
2019-03-28T19:43:20.554Z,8.97
2019-03-28T19:45:41.154Z,9.10
2019-03-28T19:48:11.291Z,8.70
2019-03-28T19:50:44.522Z,8.77
2019-03-28T19:53:17.820Z,8.97
2019-03-28T19:55:47.904Z,8.97
2019-03-28T19:58:20.028Z,10.30
2019-03-28T20:00:49.797Z,9.43
2019-03-28T20:03:24.113Z,10.57
2019-03-28T20:05:51.210Z,10.30
2019-03-28T20:08:20.743Z,9.90
2019-03-28T20:10:50.214Z,10.80
2019-03-28T20:13:19.741Z,9.40
2019-03-28T20:15:49.211Z,10.30
2019-03-28T20:18:18.762Z,9.30
2019-03-28T20:20:48.315Z,9.03
2019-03-28T20:23:17.840Z,9.90
2019-03-28T20:25:47.429Z,8.60
2019-03-28T20:28:16.953Z,9.50
2019-03-28T20:30:46.613Z,9.13
2019-03-28T20:33:16.180Z,9.07
2019-03-28T20:39:02.958Z,8.93
2019-03-28T20:41:21.050Z,8.90
2019-03-28T20:43:50.729Z,9.50
2019-03-28T20:46:20.908Z,9.10
2019-03-28T20:48:50.653Z,9.20
2019-03-28T20:51:20.228Z,9.27
2019-03-28T20:53:49.897Z,8.90
2019-03-28T20:56:19.713Z,9.30
2019-03-28T20:58:49.305Z,9.90
2019-03-28T21:01:19.419Z,8.70
2019-03-28T21:03:49.701Z,9.37
2019-03-28T21:06:19.684Z,10.30
2019-03-28T21:08:49.223Z,10.70
2019-03-28T21:11:18.737Z,8.83
2019-03-28T21:13:48.121Z,9.80
2019-03-28T21:16:17.748Z,9.50
2019-03-28T21:18:47.232Z,9.97
2019-03-28T21:21:17.255Z,9.30
2019-03-28T21:23:47.019Z,9.13
2019-03-28T21:26:16.447Z,10.60
2019-03-28T21:28:47.466Z,10.20
2019-03-28T21:31:17.334Z,8.67
2019-03-28T21:33:46.894Z,9.77
2019-03-28T21:36:29.098Z,10.03
2019-03-28T21:38:47.712Z,10.43
2019-03-28T21:41:17.292Z,10.40
2019-03-28T21:43:46.861Z,9.13
2019-03-28T21:46:17.851Z,10.30
2019-03-28T21:48:50.961Z,10.90
2019-03-28T21:51:29.238Z,10.17
2019-03-28T21:53:59.575Z,10.00
2019-03-28T21:56:28.964Z,9.80
2019-03-28T21:58:58.463Z,8.90
2019-03-28T22:01:27.966Z,9.20
2019-03-28T22:04:06.040Z,10.23
2019-03-28T22:06:43.147Z,10.23
2019-03-28T22:09:34.840Z,10.67
2019-03-28T22:12:27.399Z,9.90
2019-03-28T22:18:52.165Z,9.27
2019-03-28T22:21:27.256Z,9.83
2019-03-28T22:23:58.405Z,9.73
2019-03-28T22:26:28.531Z,10.60
2019-03-28T22:28:58.238Z,10.77
2019-03-28T22:31:27.929Z,11.80
2019-03-28T22:33:57.563Z,11.37
2019-03-28T22:36:27.163Z,11.00
2019-03-28T22:38:56.901Z,11.20
2019-03-28T22:41:26.770Z,12.40
2019-03-28T22:43:56.406Z,11.87
2019-03-28T22:46:25.991Z,11.37
2019-03-28T22:48:55.714Z,11.47
2019-03-28T22:51:25.886Z,10.47
2019-03-28T22:53:55.640Z,9.10
2019-03-28T22:56:25.507Z,9.80
2019-03-28T22:58:55.046Z,9.83
2019-03-28T23:01:24.410Z,10.20
2019-03-28T23:03:53.946Z,12.20
2019-03-28T23:06:28.349Z,11.50
2019-03-28T23:08:58.821Z,11.13
2019-03-28T23:11:28.442Z,10.43
2019-03-28T23:13:57.826Z,10.60
2019-03-28T23:16:27.326Z,10.70
2019-03-28T23:18:56.980Z,11.33
2019-03-28T23:21:26.531Z,11.87
2019-03-28T23:23:56.023Z,12.90
2019-03-28T23:26:25.492Z,12.47
2019-03-28T23:28:55.022Z,10.57
2019-03-28T23:31:25.090Z,12.00
2019-03-28T23:33:54.799Z,12.43
2019-03-28T23:36:24.340Z,10.63
2019-03-28T23:38:53.866Z,10.70
2019-03-28T23:41:23.371Z,10.70
2019-03-28T23:44:21.167Z,10.50
2019-03-28T23:47:03.164Z,10.50
2019-03-28T23:49:38.773Z,10.00
2019-03-28T23:52:27.434Z,11.00
2019-03-28T23:55:11.625Z,11.80
2019-03-28T23:58:04.998Z,11.90
